Time;durP1;ratioP1;P1;durP2;ratioP2;P2;SDS_P1;SDS_P2;PMS_P1;PMS_P2;Temp;Humidity;BMP_temperature;BMP_pressure;BME280_temperature;BME280_humidity;BME280_pressure;Samples;Min_cycle;Max_cycle;Signal;HPM_P1;HPM_P2
2022/11/19 00:01:38;;;;;;;3.33;2.60;;;7.30;96.40;;;;;;5136350;27;20236;-93
2022/11/19 00:04:09;;;;;;;4.53;2.67;;;7.30;96.80;;;;;;5139806;27;20229;-93
2022/11/19 00:06:41;;;;;;;3.93;2.57;;;7.10;97.20;;;;;;5141190;27;20213;-93
2022/11/19 00:09:13;;;;;;;4.03;2.80;;;6.90;99.50;;;;;;5160062;27;20221;-93
2022/11/19 00:14:31;;;;;;;3.67;2.70;;;6.60;99.90;;;;;;5139193;27;20292;-93
2022/11/19 00:17:01;;;;;;;9.30;2.83;;;6.40;99.90;;;;;;5138376;27;20637;-91
2022/11/19 00:19:32;;;;;;;3.67;2.73;;;6.30;99.90;;;;;;5141838;27;20209;-92
2022/11/19 00:22:04;;;;;;;4.80;3.17;;;6.20;99.90;;;;;;5141242;27;20268;-92
2022/11/19 00:24:35;;;;;;;6.43;2.83;;;6.00;99.90;;;;;;5145416;27;20215;-92
2022/11/19 00:27:05;;;;;;;5.27;2.90;;;5.80;99.90;;;;;;5150778;27;20252;-92
2022/11/19 00:29:36;;;;;;;6.33;3.20;;;5.70;99.90;;;;;;5151026;27;20198;-92
2022/11/19 00:32:07;;;;;;;4.23;2.70;;;5.50;99.90;;;;;;5155795;27;20182;-93
2022/11/19 00:34:37;;;;;;;7.27;3.20;;;5.50;99.90;;;;;;5157892;27;20231;-92
2022/11/19 00:37:10;;;;;;;4.40;2.77;;;5.40;99.90;;;;;;5150991;27;20257;-93
2022/11/19 00:39:40;;;;;;;5.90;3.47;;;5.30;99.90;;;;;;5148346;27;20229;-88
2022/11/19 00:42:11;;;;;;;5.60;3.07;;;5.20;99.90;;;;;;5146267;27;20228;-92
2022/11/19 00:44:42;;;;;;;5.30;3.53;;;5.10;99.90;;;;;;5130910;27;20234;-92
2022/11/19 00:47:13;;;;;;;5.73;3.33;;;5.10;99.90;;;;;;5138490;27;20200;-92
2022/11/19 00:49:44;;;;;;;6.17;3.10;;;5.00;99.90;;;;;;5144583;27;20229;-93
2022/11/19 00:52:16;;;;;;;6.40;3.20;;;4.90;99.90;;;;;;5140912;27;20233;-93
2022/11/19 00:54:47;;;;;;;4.47;3.23;;;4.90;99.90;;;;;;5149488;27;20205;-92
2022/11/19 00:57:17;;;;;;;4.73;2.90;;;4.80;99.90;;;;;;5144585;27;20205;-92
2022/11/19 00:59:48;;;;;;;6.23;3.50;;;4.80;99.90;;;;;;5136115;27;20226;-92
2022/11/19 01:02:19;;;;;;;4.93;3.43;;;4.70;99.90;;;;;;5114642;28;20229;-93
2022/11/19 01:04:50;;;;;;;4.83;3.10;;;4.60;99.90;;;;;;5120563;27;20313;-92
2022/11/19 01:07:23;;;;;;;4.60;3.17;;;4.60;99.90;;;;;;5139873;27;20689;-92
2022/11/19 01:09:53;;;;;;;6.03;3.67;;;4.50;99.90;;;;;;5139487;27;20201;-92
2022/11/19 01:12:25;;;;;;;6.40;3.73;;;4.50;99.90;;;;;;5137847;27;20233;-92
2022/11/19 01:14:55;;;;;;;5.43;3.33;;;4.40;99.90;;;;;;5134261;27;20257;-92
2022/11/19 01:17:27;;;;;;;6.63;3.70;;;4.30;99.90;;;;;;5138687;27;20300;-92
2022/11/19 01:19:59;;;;;;;9.50;4.07;;;4.20;99.90;;;;;;5117095;27;20297;-93
2022/11/19 01:22:36;;;;;;;6.10;3.60;;;4.20;99.90;;;;;;5130522;27;20211;-92
2022/11/19 01:25:10;;;;;;;6.43;3.40;;;4.00;99.90;;;;;;5128479;27;20284;-91
2022/11/19 01:27:41;;;;;;;8.10;4.17;;;3.90;99.90;;;;;;5110979;27;20285;-93
2022/11/19 01:30:13;;;;;;;6.43;4.17;;;3.90;99.90;;;;;;4779535;27;10000446;-92
2022/11/19 01:32:44;;;;;;;6.07;4.07;;;3.80;99.90;;;;;;5118524;27;20297;-92
2022/11/19 01:35:17;;;;;;;7.60;4.00;;;3.80;99.90;;;;;;5123307;27;20957;-93
2022/11/19 01:37:51;;;;;;;12.60;3.73;;;3.80;99.90;;;;;;5129336;27;20285;-89
2022/11/19 01:40:23;;;;;;;5.17;3.63;;;3.70;99.90;;;;;;5122776;27;20625;-90
2022/11/19 01:42:55;;;;;;;5.43;3.43;;;3.60;99.90;;;;;;5132692;27;20625;-91
2022/11/19 01:45:32;;;;;;;6.33;3.10;;;3.60;99.90;;;;;;5125661;27;20297;-90
2022/11/19 01:48:08;;;;;;;6.93;4.10;;;3.50;99.90;;;;;;5116748;28;20205;-89
2022/11/19 01:50:43;;;;;;;6.53;3.87;;;3.50;99.90;;;;;;5127091;27;20300;-91
2022/11/19 01:53:18;;;;;;;6.63;4.07;;;3.40;99.90;;;;;;5136600;27;20284;-93
2022/11/19 01:55:51;;;;;;;9.17;3.60;;;3.40;99.90;;;;;;5136133;27;20379;-92
2022/11/19 01:58:25;;;;;;;10.27;3.53;;;3.30;99.90;;;;;;5117564;27;20206;-95
2022/11/19 02:00:56;;;;;;;6.93;3.43;;;3.30;99.90;;;;;;5119006;27;20282;-91
2022/11/19 02:03:30;;;;;;;6.70;3.67;;;3.20;99.90;;;;;;5135375;27;20205;-91
2022/11/19 02:06:05;;;;;;;7.00;3.93;;;3.10;99.90;;;;;;5133362;27;20217;-87
2022/11/19 02:08:43;;;;;;;8.33;4.00;;;3.10;99.90;;;;;;5128454;27;20622;-89
2022/11/19 02:11:39;;;;;;;6.37;3.90;;;3.00;99.90;;;;;;5129973;27;20209;-90
2022/11/19 02:14:26;;;;;;;7.63;3.87;;;3.00;99.90;;;;;;5122608;27;20238;-92
2022/11/19 02:17:07;;;;;;;5.80;3.23;;;2.90;99.90;;;;;;5135147;27;20296;-90
2022/11/19 02:20:24;;;;;;;10.10;4.40;;;2.90;99.90;;;;;;5133979;28;20292;-92
2022/11/19 02:23:20;;;;;;;7.33;3.63;;;2.80;99.90;;;;;;5130437;28;20296;-91
2022/11/19 02:26:33;;;;;;;8.57;3.73;;;2.80;99.90;;;;;;5123627;28;20335;-91
2022/11/19 02:29:19;;;;;;;6.23;3.73;;;2.70;99.90;;;;;;5135347;28;20296;-91
2022/11/19 02:31:58;;;;;;;8.57;3.50;;;2.70;99.90;;;;;;5126833;28;20201;-92
2022/11/19 02:34:33;;;;;;;4.33;3.13;;;2.60;99.90;;;;;;5122382;28;20633;-92
2022/11/19 02:37:10;;;;;;;8.00;3.90;;;2.60;99.90;;;;;;5135422;28;20248;-93
2022/11/19 02:39:44;;;;;;;7.37;3.83;;;2.60;99.90;;;;;;5129679;28;20654;-94
2022/11/19 02:42:22;;;;;;;9.53;4.03;;;2.60;99.90;;;;;;5142983;28;20953;-93
2022/11/19 02:45:02;;;;;;;6.87;3.90;;;2.50;99.90;;;;;;5124555;28;20213;-93
2022/11/19 02:47:40;;;;;;;6.03;3.93;;;2.50;99.90;;;;;;5147722;28;20206;-93
2022/11/19 02:50:15;;;;;;;4.40;3.33;;;2.40;99.90;;;;;;4779784;28;10000175;-94
2022/11/19 02:52:47;;;;;;;7.37;3.67;;;2.40;99.90;;;;;;5123150;27;20262;-95
2022/11/19 02:55:21;;;;;;;7.37;3.83;;;2.40;99.90;;;;;;5135066;28;20392;-95
2022/11/19 02:57:58;;;;;;;6.03;3.80;;;2.30;99.90;;;;;;5143183;27;20303;-94
2022/11/19 03:06:24;;;;;;;6.13;3.93;;;2.30;99.90;;;;;;5107750;28;20214;-96
2022/11/19 03:08:58;;;;;;;7.50;4.17;;;2.20;99.90;;;;;;5112362;28;20225;-94
2022/11/19 03:11:31;;;;;;;5.97;3.90;;;2.30;99.90;;;;;;5080557;28;20259;-93
2022/11/19 03:17:02;;;;;;;6.87;4.17;;;2.30;99.90;;;;;;5083391;28;20238;-91
2022/11/19 03:19:42;;;;;;;6.33;3.73;;;2.20;99.90;;;;;;5096624;28;20301;-94
2022/11/19 03:22:19;;;;;;;6.20;3.77;;;2.20;99.90;;;;;;5075359;28;20298;-92
2022/11/19 03:24:57;;;;;;;8.23;4.17;;;2.20;99.90;;;;;;5092271;28;20290;-90
2022/11/19 03:27:33;;;;;;;5.97;3.90;;;2.20;99.90;;;;;;5087137;28;20215;-91
2022/11/19 03:30:06;;;;;;;7.53;4.17;;;2.20;99.90;;;;;;5096971;28;20572;-94
2022/11/19 03:32:41;;;;;;;7.03;4.10;;;2.20;99.90;;;;;;5102164;28;20633;-91
2022/11/19 03:35:18;;;;;;;7.60;4.57;;;2.20;99.90;;;;;;5088745;28;20293;-90
2022/11/19 03:37:53;;;;;;;9.97;4.80;;;2.10;99.90;;;;;;5096206;28;20295;-93
2022/11/19 03:40:25;;;;;;;11.03;6.63;;;2.10;99.90;;;;;;5096789;28;20215;-93
2022/11/19 03:42:58;;;;;;;13.77;7.67;;;2.00;99.90;;;;;;5095763;28;20294;-93
2022/11/19 03:45:35;;;;;;;13.43;7.83;;;2.00;99.90;;;;;;5097843;28;20262;-92
2022/11/19 03:48:07;;;;;;;13.27;7.30;;;2.00;99.90;;;;;;5082778;28;20309;-92
2022/11/19 03:50:53;;;;;;;13.73;7.80;;;1.90;99.90;;;;;;5098754;28;20623;-92
2022/11/19 03:53:24;;;;;;;13.10;8.07;;;1.80;99.90;;;;;;5097640;28;20579;-92
2022/11/19 03:55:59;;;;;;;12.97;7.03;;;1.80;99.90;;;;;;5098041;28;20574;-92
2022/11/19 03:58:33;;;;;;;10.37;5.90;;;1.80;99.90;;;;;;5096465;28;20289;-91
2022/11/19 04:01:05;;;;;;;6.80;4.80;;;1.80;99.90;;;;;;5096208;28;20677;-92
2022/11/19 04:03:36;;;;;;;8.00;4.60;;;1.70;99.90;;;;;;5098002;28;20215;-95
2022/11/19 04:06:11;;;;;;;7.60;4.47;;;1.70;99.90;;;;;;5096941;28;20605;-94
2022/11/19 04:08:42;;;;;;;10.63;5.07;;;1.60;99.90;;;;;;5097600;28;20201;-93
2022/11/19 04:11:13;;;;;;;9.73;5.27;;;1.60;99.90;;;;;;5100044;28;20238;-92
2022/11/19 04:13:45;;;;;;;8.43;5.20;;;1.60;99.90;;;;;;5096438;28;20210;-92
2022/11/19 04:16:16;;;;;;;7.40;4.80;;;1.60;99.90;;;;;;5095900;28;20241;-91
2022/11/19 04:18:47;;;;;;;6.47;4.57;;;1.60;99.90;;;;;;5081108;28;20302;-93
2022/11/19 04:21:20;;;;;;;6.83;4.70;;;1.50;99.90;;;;;;5095176;28;20274;-91
2022/11/19 04:23:52;;;;;;;8.40;4.80;;;1.50;99.90;;;;;;5093927;28;20238;-93
2022/11/19 04:26:23;;;;;;;7.27;4.37;;;1.50;99.90;;;;;;5095091;28;20318;-95
2022/11/19 04:28:55;;;;;;;6.47;4.13;;;1.50;99.90;;;;;;5101737;28;20206;-93
2022/11/19 04:31:26;;;;;;;5.97;4.17;;;1.50;99.90;;;;;;5077050;28;20299;-92
2022/11/19 04:33:59;;;;;;;8.20;4.23;;;1.40;99.90;;;;;;5091037;28;20252;-94
2022/11/19 04:36:32;;;;;;;5.77;3.70;;;1.40;99.90;;;;;;4734777;28;10001043;-91
2022/11/19 04:39:04;;;;;;;8.50;4.40;;;1.40;99.90;;;;;;5094522;28;20241;-93
2022/11/19 04:41:35;;;;;;;7.17;4.10;;;1.30;99.90;;;;;;5095496;28;20317;-94
2022/11/19 04:44:08;;;;;;;5.73;4.20;;;1.30;99.90;;;;;;5095135;28;20306;-94
2022/11/19 04:46:39;;;;;;;8.20;4.53;;;1.20;99.90;;;;;;5078672;28;20742;-93
2022/11/19 04:49:10;;;;;;;7.80;4.23;;;1.30;99.90;;;;;;5081611;28;20271;-93
2022/11/19 04:51:43;;;;;;;6.47;4.33;;;1.20;99.90;;;;;;5101958;28;20203;-96
2022/11/19 04:54:15;;;;;;;7.97;4.40;;;1.20;99.90;;;;;;5098909;28;20233;-96
2022/11/19 04:56:46;;;;;;;7.10;3.97;;;1.20;99.90;;;;;;5116208;28;20214;-93
2022/11/19 04:59:18;;;;;;;6.27;4.03;;;1.20;99.90;;;;;;5108464;27;20713;-96
2022/11/19 05:01:50;;;;;;;9.53;4.13;;;1.20;99.90;;;;;;5094705;28;20298;-96
2022/11/19 05:04:21;;;;;;;8.03;4.33;;;1.20;99.90;;;;;;5111544;28;20279;-96
2022/11/19 05:06:56;;;;;;;8.33;4.17;;;1.10;99.90;;;;;;5102624;28;20281;-96
2022/11/19 05:09:27;;;;;;;10.10;4.37;;;1.10;99.90;;;;;;5095815;28;20615;-93
2022/11/19 05:11:59;;;;;;;6.47;4.50;;;1.10;99.90;;;;;;5094875;28;20261;-96
2022/11/19 05:14:31;;;;;;;9.27;4.67;;;1.00;99.90;;;;;;5095771;28;20920;-93
2022/11/19 05:17:03;;;;;;;7.43;4.13;;;1.00;99.90;;;;;;5094763;28;20229;-92
2022/11/19 05:19:34;;;;;;;5.87;3.90;;;1.00;99.90;;;;;;5094788;28;20203;-91
2022/11/19 05:22:07;;;;;;;7.90;4.40;;;1.00;99.90;;;;;;5095806;28;20732;-93
2022/11/19 05:24:38;;;;;;;7.40;4.03;;;1.10;99.90;;;;;;5097285;28;20203;-93
2022/11/19 05:27:10;;;;;;;7.47;4.53;;;1.00;99.90;;;;;;5095460;28;20653;-92
2022/11/19 05:29:41;;;;;;;6.33;4.30;;;1.00;99.90;;;;;;5097738;28;20207;-92
2022/11/19 05:32:13;;;;;;;9.17;4.00;;;1.00;99.90;;;;;;5095701;28;20199;-92
2022/11/19 05:34:46;;;;;;;6.93;4.23;;;0.90;99.90;;;;;;5097672;28;20199;-91
2022/11/19 05:37:20;;;;;;;6.90;3.90;;;0.90;99.90;;;;;;5096504;28;20246;-94
2022/11/19 05:39:52;;;;;;;5.93;4.23;;;0.90;99.90;;;;;;5096229;28;20264;-95
2022/11/19 05:42:23;;;;;;;6.37;4.30;;;0.90;99.90;;;;;;5096912;28;20572;-94
2022/11/19 05:44:54;;;;;;;6.03;4.03;;;0.90;99.90;;;;;;5094757;28;20293;-95
2022/11/19 05:47:25;;;;;;;9.07;5.10;;;0.90;99.90;;;;;;5094896;28;20646;-95
2022/11/19 05:49:57;;;;;;;7.17;4.90;;;0.90;99.90;;;;;;5094956;28;20207;-95
2022/11/19 05:52:31;;;;;;;7.57;4.97;;;0.90;99.90;;;;;;5094225;28;20282;-95
2022/11/19 05:55:02;;;;;;;8.43;5.60;;;0.90;99.90;;;;;;5094639;28;20289;-94
2022/11/19 05:57:33;;;;;;;7.47;5.33;;;0.90;99.90;;;;;;5094496;28;20246;-95
2022/11/19 06:00:05;;;;;;;9.10;5.70;;;0.90;99.90;;;;;;5094385;28;20207;-94
2022/11/19 06:02:36;;;;;;;7.83;5.70;;;0.90;99.90;;;;;;5071929;28;20213;-93
2022/11/19 06:05:09;;;;;;;8.53;5.27;;;0.90;99.90;;;;;;5088952;28;20203;-92
2022/11/19 06:07:42;;;;;;;7.07;4.80;;;0.80;99.90;;;;;;5081121;28;20314;-93
2022/11/19 06:10:14;;;;;;;8.23;5.00;;;0.90;99.90;;;;;;5093977;28;20211;-92
2022/11/19 06:12:46;;;;;;;7.07;4.90;;;0.90;99.90;;;;;;5093475;28;20294;-92
2022/11/19 06:15:17;;;;;;;10.93;5.33;;;0.80;99.90;;;;;;5094359;28;20202;-93
2022/11/19 06:17:49;;;;;;;7.77;4.83;;;0.80;99.90;;;;;;5093306;28;20206;-93
2022/11/19 06:20:20;;;;;;;9.03;6.00;;;0.80;99.90;;;;;;5093866;28;20207;-94
2022/11/19 06:22:54;;;;;;;12.80;8.57;;;0.70;99.90;;;;;;5092238;28;20202;-92
2022/11/19 06:25:26;;;;;;;14.97;9.33;;;0.70;99.90;;;;;;5073542;28;20269;-91
2022/11/19 06:27:58;;;;;;;11.57;8.07;;;0.70;99.90;;;;;;5073048;28;20293;-93
2022/11/19 06:30:30;;;;;;;11.33;7.43;;;0.70;99.90;;;;;;5078679;28;20237;-91
2022/11/19 06:33:01;;;;;;;12.10;7.93;;;0.70;99.90;;;;;;5096356;28;20203;-93
2022/11/19 06:35:33;;;;;;;14.50;8.07;;;0.70;99.90;;;;;;5080076;28;20285;-91
2022/11/19 06:38:07;;;;;;;14.63;8.50;;;0.70;99.90;;;;;;5097628;28;20297;-92
2022/11/19 06:40:39;;;;;;;13.33;8.30;;;0.70;99.90;;;;;;5099156;28;20229;-93
2022/11/19 06:43:10;;;;;;;10.50;6.70;;;0.70;99.90;;;;;;5096825;28;20210;-92
2022/11/19 06:45:42;;;;;;;8.37;5.80;;;0.60;99.90;;;;;;5097923;28;20234;-92
2022/11/19 06:48:14;;;;;;;7.40;4.97;;;0.60;99.90;;;;;;5097674;28;20227;-92
2022/11/19 06:50:46;;;;;;;8.00;4.57;;;0.50;99.90;;;;;;5093068;28;20633;-94
2022/11/19 06:53:20;;;;;;;7.00;4.60;;;0.50;99.90;;;;;;5090135;28;20195;-93
2022/11/19 06:55:58;;;;;;;5.77;4.40;;;0.50;99.90;;;;;;5091328;28;20246;-93
2022/11/19 06:58:31;;;;;;;7.33;4.43;;;0.40;99.90;;;;;;5089278;28;20226;-92
2022/11/19 07:01:02;;;;;;;7.17;5.00;;;0.40;99.90;;;;;;5097415;28;20228;-93
2022/11/19 07:03:34;;;;;;;9.60;5.90;;;0.30;99.90;;;;;;5099127;28;20252;-92
2022/11/19 07:06:06;;;;;;;8.27;5.90;;;0.30;99.90;;;;;;5098418;28;20290;-93
2022/11/19 07:08:40;;;;;;;11.50;5.80;;;0.20;99.90;;;;;;5116090;27;20191;-92
2022/11/19 07:11:27;;;;;;;7.47;4.90;;;0.20;99.90;;;;;;5113823;28;20218;-93
2022/11/19 07:14:00;;;;;;;10.77;6.00;;;0.20;99.90;;;;;;5105448;28;20296;-94
2022/11/19 07:16:33;;;;;;;11.07;6.67;;;0.20;99.90;;;;;;5098675;28;20304;-93
2022/11/19 07:19:06;;;;;;;9.07;6.27;;;0.20;99.90;;;;;;5098733;28;21031;-94
2022/11/19 07:21:38;;;;;;;12.13;6.00;;;0.10;99.90;;;;;;5096761;28;20286;-92
2022/11/19 07:24:12;;;;;;;9.03;5.67;;;0.10;99.90;;;;;;5085177;28;20310;-91
2022/11/19 07:26:45;;;;;;;8.27;5.53;;;0.10;99.90;;;;;;5090368;28;20311;-93
2022/11/19 07:29:17;;;;;;;10.30;5.60;;;0.10;99.90;;;;;;5096267;28;20217;-92
2022/11/19 07:31:52;;;;;;;7.37;5.67;;;0.00;99.90;;;;;;5096729;28;20614;-91
2022/11/19 07:34:24;;;;;;;7.37;5.10;;;0.00;99.90;;;;;;5095097;28;20297;-92
2022/11/19 07:36:56;;;;;;;7.27;4.60;;;-0.10;99.90;;;;;;5094921;28;20269;-91
2022/11/19 07:39:30;;;;;;;8.57;5.30;;;-0.10;99.90;;;;;;5095127;28;20283;-91
2022/11/19 07:44:49;;;;;;;5.20;3.70;;;-0.10;99.90;;;;;;5094389;28;20226;-91
2022/11/19 07:47:24;;;;;;;6.17;4.13;;;-0.10;99.90;;;;;;5094161;28;20575;-92
2022/11/19 07:49:55;;;;;;;6.47;4.07;;;-0.10;99.90;;;;;;5089956;28;20211;-92
2022/11/19 07:52:26;;;;;;;5.07;3.57;;;-0.10;99.90;;;;;;5084895;28;20234;-93
2022/11/19 07:55:00;;;;;;;9.67;4.30;;;-0.20;99.90;;;;;;5094466;28;20208;-93
2022/11/19 07:57:33;;;;;;;6.67;4.33;;;-0.20;99.90;;;;;;5080798;28;20298;-91
2022/11/19 08:00:04;;;;;;;6.80;4.20;;;-0.20;99.90;;;;;;5080062;28;20210;-94
2022/11/19 08:02:38;;;;;;;7.43;4.40;;;-0.20;99.90;;;;;;5093698;28;20238;-92
2022/11/19 08:05:09;;;;;;;8.80;4.27;;;-0.20;99.90;;;;;;5085954;28;20209;-92
2022/11/19 08:07:42;;;;;;;7.43;4.40;;;-0.20;99.90;;;;;;5087433;28;20230;-93
2022/11/19 08:10:15;;;;;;;7.40;4.27;;;-0.20;99.90;;;;;;5096218;28;20214;-93
2022/11/19 08:13:01;;;;;;;10.33;4.30;;;-0.20;99.90;;;;;;5096087;28;20206;-92
2022/11/19 08:15:34;;;;;;;8.43;4.57;;;-0.20;99.90;;;;;;5089589;28;20639;-92
2022/11/19 08:18:14;;;;;;;7.63;4.30;;;-0.20;99.90;;;;;;5099159;28;20201;-92
2022/11/19 08:20:47;;;;;;;8.10;5.17;;;-0.20;99.90;;;;;;5094069;28;20282;-92
2022/11/19 08:23:18;;;;;;;8.80;4.20;;;-0.20;99.90;;;;;;5086477;28;20203;-92
2022/11/19 08:25:53;;;;;;;7.50;4.53;;;-0.20;99.90;;;;;;5086648;28;20208;-92
2022/11/19 08:28:25;;;;;;;6.57;4.67;;;-0.30;99.90;;;;;;5093219;28;20285;-92
2022/11/19 08:30:56;;;;;;;8.90;4.40;;;-0.20;99.90;;;;;;5089928;28;20211;-92
2022/11/19 08:33:27;;;;;;;5.37;3.53;;;-0.20;99.90;;;;;;5067079;28;20199;-91
2022/11/19 08:35:59;;;;;;;7.30;4.03;;;-0.20;99.90;;;;;;5092157;28;20659;-92
2022/11/19 08:38:31;;;;;;;7.10;3.60;;;-0.20;99.90;;;;;;5093807;28;20698;-91
2022/11/19 08:44:00;;;;;;;6.33;3.27;;;-0.20;99.90;;;;;;5076424;28;20212;-91
2022/11/19 08:46:31;;;;;;;5.60;3.30;;;-0.30;99.90;;;;;;5074827;28;20220;-91
2022/11/19 08:49:02;;;;;;;6.87;3.67;;;-0.20;99.90;;;;;;5072886;28;20281;-92
2022/11/19 08:51:34;;;;;;;6.27;3.70;;;-0.20;99.90;;;;;;5077226;28;20634;-91
2022/11/19 08:54:06;;;;;;;9.77;3.57;;;-0.30;99.90;;;;;;5097109;28;20719;-93
2022/11/19 08:56:40;;;;;;;7.97;3.80;;;-0.30;99.90;;;;;;5093910;28;20230;-92
2022/11/19 08:59:11;;;;;;;6.33;3.37;;;-0.30;99.90;;;;;;5089922;28;20237;-92
2022/11/19 09:01:43;;;;;;;4.10;2.77;;;-0.30;99.90;;;;;;5088668;28;20228;-92
2022/11/19 09:04:14;;;;;;;4.87;2.97;;;-0.30;99.90;;;;;;5095214;28;20249;-92
2022/11/19 09:06:46;;;;;;;7.20;3.23;;;-0.30;99.90;;;;;;5076023;28;20271;-92
2022/11/19 09:09:18;;;;;;;6.50;3.27;;;-0.40;99.90;;;;;;5085695;28;20686;-91
2022/11/19 09:11:54;;;;;;;9.80;4.03;;;-0.40;99.90;;;;;;5088567;28;20294;-93
2022/11/19 09:14:25;;;;;;;5.77;3.37;;;-0.40;99.90;;;;;;5094698;28;20245;-92
2022/11/19 09:16:58;;;;;;;5.93;3.83;;;-0.40;99.90;;;;;;5099375;28;20274;-94
2022/11/19 09:19:30;;;;;;;5.47;3.37;;;-0.40;99.90;;;;;;5093751;28;20219;-93
2022/11/19 09:22:01;;;;;;;6.50;3.63;;;-0.40;99.90;;;;;;5110641;28;20200;-92
2022/11/19 09:24:32;;;;;;;5.43;3.10;;;-0.40;99.90;;;;;;5107821;28;20274;-93
2022/11/19 09:27:06;;;;;;;5.03;3.23;;;-0.50;99.90;;;;;;5110413;28;20201;-93
2022/11/19 09:29:39;;;;;;;5.27;3.37;;;-0.50;99.90;;;;;;5091487;28;20273;-91
2022/11/19 09:32:10;;;;;;;5.07;3.10;;;-0.50;99.90;;;;;;5068681;28;20300;-92
2022/11/19 09:34:41;;;;;;;4.37;3.13;;;-0.50;99.90;;;;;;5092448;28;20297;-93
2022/11/19 09:37:12;;;;;;;5.90;3.43;;;-0.50;99.90;;;;;;5077027;28;20199;-93
2022/11/19 09:39:44;;;;;;;7.33;3.03;;;-0.60;99.90;;;;;;5083116;28;20208;-93
2022/11/19 09:42:31;;;;;;;6.63;3.20;;;-0.50;99.90;;;;;;5084390;28;20309;-93
2022/11/19 09:45:20;;;;;;;5.23;2.93;;;-0.60;99.90;;;;;;5092635;28;20675;-93
2022/11/19 09:48:19;;;;;;;4.53;2.60;;;-0.60;99.90;;;;;;5086781;28;20229;-93
2022/11/19 09:50:54;;;;;;;5.03;2.93;;;-0.60;99.90;;;;;;5091993;28;20231;-92
2022/11/19 09:53:29;;;;;;;4.30;2.37;;;-0.60;99.90;;;;;;5088659;28;20297;-92
2022/11/19 09:56:01;;;;;;;4.07;2.53;;;-0.70;99.90;;;;;;5080547;28;20271;-93
2022/11/19 09:58:39;;;;;;;6.87;2.90;;;-0.70;99.90;;;;;;5080477;28;20215;-93
2022/11/19 10:01:16;;;;;;;6.67;2.63;;;-0.70;99.90;;;;;;5092117;28;20241;-92
2022/11/19 10:03:50;;;;;;;4.00;2.40;;;-0.70;99.90;;;;;;5091861;28;20639;-92
2022/11/19 10:06:29;;;;;;;6.47;2.73;;;-0.70;99.90;;;;;;5092030;28;20282;-91
2022/11/19 10:09:27;;;;;;;3.17;1.93;;;-0.70;99.90;;;;;;5091438;28;20717;-93
2022/11/19 10:12:13;;;;;;;4.43;2.20;;;-0.70;99.90;;;;;;5057228;28;20204;-93
2022/11/19 10:15:07;;;;;;;4.43;2.60;;;-0.70;99.90;;;;;;5071972;28;20206;-94
2022/11/19 10:17:49;;;;;;;4.10;2.30;;;-0.70;99.90;;;;;;5076326;28;20207;-93
2022/11/19 10:20:41;;;;;;;3.83;2.57;;;-0.70;99.90;;;;;;5077165;28;20230;-94
2022/11/19 10:23:19;;;;;;;4.47;2.87;;;-0.70;99.90;;;;;;5075796;28;20207;-93
2022/11/19 10:25:53;;;;;;;3.33;2.57;;;-0.70;99.90;;;;;;5092036;28;20221;-93
2022/11/19 10:28:28;;;;;;;5.13;2.83;;;-0.70;99.90;;;;;;5091795;28;20312;-94
2022/11/19 10:31:09;;;;;;;5.17;2.77;;;-0.70;99.90;;;;;;5073631;28;20245;-93
2022/11/19 10:33:47;;;;;;;4.53;3.00;;;-0.70;99.90;;;;;;5073226;28;20729;-93
2022/11/19 10:36:24;;;;;;;4.53;2.70;;;-0.70;99.90;;;;;;5094574;28;20567;-93
2022/11/19 10:39:01;;;;;;;5.40;3.13;;;-0.60;99.90;;;;;;5095490;28;20209;-93
2022/11/19 10:41:37;;;;;;;5.80;3.27;;;-0.60;99.90;;;;;;5094747;28;20621;-93
2022/11/19 10:47:11;;;;;;;4.93;3.00;;;-0.60;99.90;;;;;;5093689;28;20206;-94
2022/11/19 10:49:44;;;;;;;6.13;2.50;;;-0.60;99.90;;;;;;5094709;28;20239;-92
2022/11/19 10:52:27;;;;;;;4.20;2.50;;;-0.60;99.90;;;;;;5070829;28;20234;-92
2022/11/19 10:55:05;;;;;;;5.97;3.17;;;-0.60;99.90;;;;;;5075741;28;20296;-91
2022/11/19 10:57:36;;;;;;;4.97;3.23;;;-0.70;99.90;;;;;;5092509;28;20518;-92
2022/11/19 11:00:08;;;;;;;4.37;3.00;;;-0.70;99.90;;;;;;5081919;28;20221;-92
2022/11/19 11:02:47;;;;;;;4.10;2.87;;;-0.70;99.90;;;;;;5090890;28;20280;-92
2022/11/19 11:05:20;;;;;;;6.03;3.37;;;-0.80;99.90;;;;;;5091888;28;20232;-93
2022/11/19 11:07:55;;;;;;;7.23;3.27;;;-0.80;99.90;;;;;;5092293;28;20233;-92
2022/11/19 11:10:41;;;;;;;5.17;3.20;;;-0.80;99.90;;;;;;5091244;28;20327;-93
2022/11/19 11:16:18;;;;;;;5.20;2.90;;;-0.80;99.90;;;;;;5093083;28;20207;-92
2022/11/19 11:18:54;;;;;;;4.63;2.83;;;-0.90;99.90;;;;;;5092817;28;20198;-92
2022/11/19 11:21:35;;;;;;;4.43;2.70;;;-0.90;99.90;;;;;;5096260;28;20241;-94
2022/11/19 11:24:09;;;;;;;4.87;2.80;;;-0.90;99.90;;;;;;5060464;28;20203;-94
2022/11/19 11:26:41;;;;;;;6.13;2.73;;;-0.90;99.90;;;;;;5097156;28;20233;-93
2022/11/19 11:29:27;;;;;;;4.97;3.27;;;-0.90;99.90;;;;;;5096297;28;20327;-94
2022/11/19 11:31:58;;;;;;;5.50;3.07;;;-0.90;99.90;;;;;;5095991;28;20202;-93
2022/11/19 11:34:39;;;;;;;4.30;2.67;;;-0.90;99.90;;;;;;5096950;28;20711;-93
2022/11/19 11:37:14;;;;;;;4.10;2.77;;;-1.00;99.90;;;;;;5109263;28;20187;-93
2022/11/19 11:39:46;;;;;;;5.07;2.67;;;-1.00;99.90;;;;;;5116349;28;20208;-95
2022/11/19 11:42:20;;;;;;;4.13;2.67;;;-1.10;99.90;;;;;;5109476;28;20208;-93
2022/11/19 11:44:54;;;;;;;4.50;2.53;;;-1.20;99.90;;;;;;5096244;28;20238;-93
2022/11/19 11:47:29;;;;;;;4.10;2.67;;;-1.20;99.90;;;;;;5101966;28;20542;-93
2022/11/19 11:50:08;;;;;;;4.87;2.77;;;-1.20;99.90;;;;;;5094845;28;20329;-92
2022/11/19 11:52:45;;;;;;;3.10;2.37;;;-1.20;99.90;;;;;;5074151;28;20224;-93
2022/11/19 11:55:17;;;;;;;4.17;2.30;;;-1.20;99.90;;;;;;5074785;28;20288;-93
2022/11/19 11:57:55;;;;;;;3.30;2.30;;;-1.20;99.90;;;;;;5093286;28;20292;-93
2022/11/19 12:00:35;;;;;;;6.10;2.83;;;-1.10;99.90;;;;;;5094962;28;20217;-90
2022/11/19 12:03:09;;;;;;;5.70;2.47;;;-1.10;99.90;;;;;;5091408;28;20207;-92
2022/11/19 12:06:06;;;;;;;4.63;2.40;;;-1.20;99.90;;;;;;5104035;28;20213;-92
2022/11/19 12:08:48;;;;;;;3.70;2.67;;;-1.20;99.90;;;;;;5090852;28;20227;-93
2022/11/19 12:11:24;;;;;;;3.83;2.40;;;-1.20;99.90;;;;;;5088362;28;20222;-93
2022/11/19 12:14:04;;;;;;;4.53;2.63;;;-1.20;99.90;;;;;;5095838;28;20333;-92
2022/11/19 12:17:11;;;;;;;3.80;2.37;;;-1.20;99.90;;;;;;5095113;28;20202;-92
2022/11/19 12:20:01;;;;;;;3.33;2.70;;;-1.20;99.90;;;;;;5093532;28;20695;-92
2022/11/19 12:22:47;;;;;;;3.50;2.40;;;-1.20;99.90;;;;;;5093632;28;20202;-92
2022/11/19 12:25:30;;;;;;;3.97;2.67;;;-1.10;99.90;;;;;;5094745;28;20214;-93
2022/11/19 12:28:33;;;;;;;3.67;2.60;;;-1.20;99.90;;;;;;5093874;28;20306;-93
2022/11/19 12:31:16;;;;;;;2.70;2.30;;;-1.10;99.90;;;;;;5094328;28;20297;-94
2022/11/19 12:34:25;;;;;;;3.17;2.17;;;-1.20;99.90;;;;;;5089477;28;20341;-95
2022/11/19 12:37:02;;;;;;;4.23;2.17;;;-1.10;99.90;;;;;;5088872;28;20289;-93
2022/11/19 12:39:46;;;;;;;5.00;2.67;;;-1.10;99.90;;;;;;5093388;28;20213;-93
2022/11/19 12:42:40;;;;;;;3.77;2.30;;;-1.10;99.90;;;;;;5092664;28;20726;-92
2022/11/19 12:45:22;;;;;;;2.90;2.20;;;-1.10;99.90;;;;;;5072943;28;20297;-94
2022/11/19 12:48:15;;;;;;;3.30;2.30;;;-1.10;99.90;;;;;;5081026;28;20255;-94
2022/11/19 12:50:54;;;;;;;3.27;2.30;;;-1.10;99.90;;;;;;5093240;28;20351;-93
2022/11/19 12:53:52;;;;;;;3.07;2.20;;;-1.10;99.90;;;;;;5091452;28;20207;-93
2022/11/19 12:56:35;;;;;;;4.30;2.50;;;-1.00;99.90;;;;;;5067339;28;20208;-92
2022/11/19 12:59:22;;;;;;;3.97;2.27;;;-1.00;99.90;;;;;;5084372;28;20306;-92
2022/11/19 13:01:55;;;;;;;4.47;2.67;;;-1.00;99.90;;;;;;5074424;28;20285;-94
2022/11/19 13:04:36;;;;;;;4.10;2.20;;;-1.00;99.90;;;;;;5075518;28;20224;-93
2022/11/19 13:07:12;;;;;;;2.87;2.23;;;-1.00;99.90;;;;;;5072994;28;20206;-91
2022/11/19 13:09:49;;;;;;;5.00;2.60;;;-1.00;99.90;;;;;;5074615;28;20250;-92
2022/11/19 13:12:25;;;;;;;3.53;2.37;;;-1.00;99.90;;;;;;5072863;28;20205;-93
2022/11/19 13:15:00;;;;;;;2.83;2.30;;;-1.00;99.90;;;;;;5074333;28;20626;-93
2022/11/19 13:17:35;;;;;;;3.47;2.13;;;-1.00;99.90;;;;;;5090318;28;20206;-92
2022/11/19 13:20:15;;;;;;;4.33;2.43;;;-1.00;99.90;;;;;;5083742;28;20228;-92
2022/11/19 13:22:48;;;;;;;3.60;1.90;;;-1.00;99.90;;;;;;5092080;28;20213;-94
2022/11/19 13:25:24;;;;;;;3.93;2.00;;;-1.00;99.90;;;;;;5092836;28;20293;-93
2022/11/19 13:28:01;;;;;;;4.13;2.60;;;-1.00;99.90;;;;;;5090931;28;20612;-93
2022/11/19 13:30:35;;;;;;;4.80;2.63;;;-1.00;99.90;;;;;;5093894;28;20258;-92
2022/11/19 13:33:15;;;;;;;3.17;2.27;;;-1.00;99.90;;;;;;5081903;28;20210;-93
2022/11/19 13:35:53;;;;;;;5.77;2.00;;;-1.00;99.90;;;;;;5073539;28;20717;-94
2022/11/19 13:38:32;;;;;;;4.60;2.57;;;-0.90;99.90;;;;;;5079678;28;20304;-92
2022/11/19 13:41:11;;;;;;;3.43;2.23;;;-0.90;99.90;;;;;;5072991;28;20305;-93
2022/11/19 13:46:40;;;;;;;4.17;2.13;;;-0.90;99.90;;;;;;5094055;28;20381;-92
2022/11/19 13:49:19;;;;;;;3.53;2.23;;;-0.90;99.90;;;;;;5101229;28;20260;-92
2022/11/19 13:51:54;;;;;;;3.77;2.30;;;-0.90;99.90;;;;;;5116180;28;20226;-91
2022/11/19 13:54:28;;;;;;;3.63;2.10;;;-0.90;99.90;;;;;;5114190;28;20231;-92
2022/11/19 13:57:00;;;;;;;5.10;2.23;;;-1.00;99.90;;;;;;5110560;28;20230;-92
2022/11/19 13:59:38;;;;;;;3.53;2.33;;;-1.00;99.90;;;;;;5109302;28;20297;-93